Time;durP1;ratioP1;P1;durP2;ratioP2;P2;SDS_P1;SDS_P2;PMS_P1;PMS_P2;Temp;Humidity;BMP_temperature;BMP_pressure;BME280_temperature;BME280_humidity;BME280_pressure;Samples;Min_cycle;Max_cycle;Signal;HPM_P1;HPM_P2
2023/09/01 00:01:24;;;;;;;3.70;3.50;;;16.30;99.90;;;;;;5011551;28;20207;-54
2023/09/01 00:03:51;;;;;;;3.50;3.30;;;16.40;99.90;;;;;;5003252;28;20207;-54
2023/09/01 00:06:18;;;;;;;3.33;2.80;;;16.30;99.90;;;;;;4992473;28;20211;-54
2023/09/01 00:08:45;;;;;;;3.80;3.50;;;16.30;99.90;;;;;;5009048;28;20231;-54
2023/09/01 00:11:12;;;;;;;3.97;3.67;;;16.20;99.90;;;;;;5009900;28;20208;-54
2023/09/01 00:13:41;;;;;;;4.10;3.80;;;16.20;99.90;;;;;;5010544;28;20261;-54
2023/09/01 00:16:08;;;;;;;4.60;3.17;;;16.20;99.90;;;;;;5011865;28;20281;-54
2023/09/01 00:18:36;;;;;;;3.20;3.10;;;16.20;99.90;;;;;;5014808;28;20191;-54
2023/09/01 00:21:04;;;;;;;3.17;3.07;;;16.20;99.90;;;;;;5014864;28;20273;-54
2023/09/01 00:23:32;;;;;;;2.80;2.70;;;16.20;99.90;;;;;;5012210;28;20619;-54
2023/09/01 00:26:00;;;;;;;3.30;3.10;;;16.20;99.90;;;;;;5014092;28;20644;-53
2023/09/01 00:28:28;;;;;;;2.63;2.43;;;16.20;99.90;;;;;;5009268;28;20223;-54
2023/09/01 00:30:58;;;;;;;3.50;3.30;;;16.20;99.90;;;;;;5014840;28;20203;-54
2023/09/01 00:33:27;;;;;;;3.37;3.27;;;16.20;99.90;;;;;;5014175;28;20362;-54
2023/09/01 00:35:55;;;;;;;2.83;2.67;;;16.20;99.90;;;;;;5014382;28;20293;-54
2023/09/01 00:38:24;;;;;;;5.03;4.53;;;16.30;99.90;;;;;;5013539;28;20618;-54
2023/09/01 00:40:51;;;;;;;3.93;3.43;;;16.30;99.90;;;;;;5012882;28;20207;-54
2023/09/01 00:43:19;;;;;;;3.93;3.73;;;16.30;99.90;;;;;;5013641;28;20724;-54
2023/09/01 00:45:45;;;;;;;5.57;3.57;;;16.30;99.90;;;;;;5014348;28;20231;-54
2023/09/01 00:48:18;;;;;;;3.77;3.50;;;16.20;99.90;;;;;;5013389;28;20290;-54
2023/09/01 00:50:49;;;;;;;5.33;3.40;;;16.20;99.90;;;;;;5014121;28;20210;-54
2023/09/01 00:53:16;;;;;;;4.07;2.90;;;16.20;99.90;;;;;;5013786;28;20628;-54
2023/09/01 00:55:43;;;;;;;3.80;3.53;;;16.20;99.90;;;;;;5011371;28;20234;-54
2023/09/01 00:58:11;;;;;;;3.63;3.33;;;16.20;99.90;;;;;;5013255;28;20253;-54
2023/09/01 01:00:39;;;;;;;3.60;3.40;;;16.20;99.90;;;;;;5014093;28;20200;-54
2023/09/01 01:03:08;;;;;;;4.73;3.80;;;16.20;99.90;;;;;;5013379;28;20214;-53
2023/09/01 01:05:44;;;;;;;3.50;3.20;;;16.30;99.90;;;;;;5014064;28;20219;-54
2023/09/01 01:08:29;;;;;;;3.10;2.90;;;16.20;99.90;;;;;;5013068;28;20265;-54
2023/09/01 01:11:02;;;;;;;3.27;3.07;;;16.20;99.90;;;;;;5012774;28;20632;-54
2023/09/01 01:13:36;;;;;;;3.33;3.23;;;16.20;99.90;;;;;;5008643;28;20211;-54
2023/09/01 01:16:04;;;;;;;3.30;3.10;;;16.20;99.90;;;;;;5005115;28;20254;-54
2023/09/01 01:18:34;;;;;;;3.47;3.10;;;16.20;99.90;;;;;;5009726;28;20573;-54
2023/09/01 01:21:07;;;;;;;2.97;2.87;;;16.20;99.90;;;;;;5013443;28;20701;-54
2023/09/01 01:23:36;;;;;;;3.77;3.57;;;16.20;99.90;;;;;;5013033;28;20203;-54
2023/09/01 01:26:04;;;;;;;3.10;2.90;;;16.00;99.90;;;;;;5013732;28;20301;-54
2023/09/01 01:28:31;;;;;;;5.60;3.43;;;16.10;99.90;;;;;;5011868;28;20219;-54
2023/09/01 01:30:58;;;;;;;3.03;2.80;;;16.00;99.90;;;;;;5012457;28;20608;-54
2023/09/01 01:33:37;;;;;;;6.43;2.50;;;15.90;99.90;;;;;;5012807;28;20199;-54
2023/09/01 01:36:17;;;;;;;2.83;2.60;;;15.90;99.90;;;;;;5012375;28;20219;-54
2023/09/01 01:38:51;;;;;;;3.47;3.13;;;16.00;99.90;;;;;;5009886;28;20206;-54
2023/09/01 01:41:24;;;;;;;3.00;2.80;;;15.90;99.90;;;;;;5013324;28;20238;-54
2023/09/01 01:43:54;;;;;;;2.33;2.23;;;15.90;99.90;;;;;;5012560;28;20211;-54
2023/09/01 01:46:22;;;;;;;5.07;3.27;;;15.90;99.90;;;;;;5013207;28;20211;-54
2023/09/01 01:48:49;;;;;;;3.57;3.10;;;15.80;99.90;;;;;;5011477;28;20281;-54
2023/09/01 01:51:16;;;;;;;3.40;2.57;;;15.80;99.90;;;;;;5013252;28;20253;-54
2023/09/01 01:53:44;;;;;;;2.80;2.60;;;15.70;99.90;;;;;;5012527;28;20641;-54
2023/09/01 01:56:13;;;;;;;3.03;2.93;;;15.70;99.90;;;;;;5013041;28;20215;-54
2023/09/01 01:58:41;;;;;;;2.67;2.57;;;15.70;99.90;;;;;;5011331;28;20195;-54
2023/09/01 02:01:08;;;;;;;2.53;2.43;;;15.60;99.90;;;;;;5012891;28;20207;-54
2023/09/01 02:03:36;;;;;;;2.40;2.20;;;15.60;99.90;;;;;;5012361;28;20232;-54
2023/09/01 02:06:03;;;;;;;2.93;2.83;;;15.60;99.90;;;;;;5011169;28;20269;-54
2023/09/01 02:08:30;;;;;;;4.33;2.90;;;15.60;99.90;;;;;;5011795;28;20302;-54
2023/09/01 02:10:58;;;;;;;3.50;3.30;;;15.50;99.90;;;;;;5010843;28;20215;-54
2023/09/01 02:13:25;;;;;;;3.20;3.00;;;15.50;99.90;;;;;;5011327;28;20624;-54
2023/09/01 02:15:53;;;;;;;3.47;3.17;;;15.50;99.90;;;;;;5012462;28;20699;-54
2023/09/01 02:18:20;;;;;;;2.97;2.63;;;15.50;99.90;;;;;;5012781;28;20214;-54
2023/09/01 02:20:48;;;;;;;3.03;2.73;;;15.50;99.90;;;;;;5012473;28;20272;-54
2023/09/01 02:23:17;;;;;;;3.67;3.47;;;15.50;99.90;;;;;;5011054;28;20199;-54
2023/09/01 02:25:44;;;;;;;3.27;3.17;;;15.50;99.90;;;;;;5012507;28;20767;-54
2023/09/01 02:28:13;;;;;;;4.30;3.03;;;15.50;99.90;;;;;;5010929;28;20309;-54
2023/09/01 02:30:40;;;;;;;3.67;3.47;;;15.50;99.90;;;;;;5010793;28;20751;-54
2023/09/01 02:33:07;;;;;;;3.40;3.10;;;15.60;99.90;;;;;;5011828;28;20261;-54
2023/09/01 02:35:34;;;;;;;5.10;3.47;;;15.60;99.90;;;;;;5008318;28;20222;-54
2023/09/01 02:38:01;;;;;;;3.47;3.37;;;15.50;99.90;;;;;;5011964;28;20199;-54
2023/09/01 02:40:28;;;;;;;3.30;2.93;;;15.60;99.90;;;;;;5012069;28;20210;-54
2023/09/01 02:42:55;;;;;;;3.07;2.97;;;15.50;99.90;;;;;;5011745;28;20211;-54
2023/09/01 02:45:24;;;;;;;3.97;3.67;;;15.50;99.90;;;;;;5012176;28;20229;-54
2023/09/01 02:47:51;;;;;;;3.87;3.67;;;15.40;99.90;;;;;;5011312;28;20223;-54
2023/09/01 02:50:18;;;;;;;3.80;3.50;;;15.50;99.90;;;;;;5009621;28;20203;-54
2023/09/01 02:52:45;;;;;;;3.40;3.20;;;15.40;99.90;;;;;;5008394;28;20214;-56
2023/09/01 02:55:14;;;;;;;3.30;3.20;;;15.40;99.90;;;;;;5011893;28;20289;-55
2023/09/01 02:57:41;;;;;;;4.30;3.87;;;15.40;99.90;;;;;;5011959;28;20257;-55
2023/09/01 03:00:18;;;;;;;5.33;3.93;;;15.40;99.90;;;;;;5011195;28;20199;-55
2023/09/01 03:02:45;;;;;;;3.73;3.57;;;15.40;99.90;;;;;;5011102;28;20202;-55
2023/09/01 03:05:12;;;;;;;4.50;4.00;;;15.40;99.90;;;;;;5010769;28;20305;-55
2023/09/01 03:07:40;;;;;;;4.20;3.93;;;15.40;99.90;;;;;;5011708;28;20665;-56
2023/09/01 03:10:08;;;;;;;4.03;3.63;;;15.40;99.90;;;;;;5010758;28;20207;-55
2023/09/01 03:12:37;;;;;;;5.43;3.23;;;15.40;99.90;;;;;;5008581;28;20199;-55
2023/09/01 03:15:05;;;;;;;3.70;3.40;;;15.40;99.90;;;;;;5011484;28;20215;-55
2023/09/01 03:17:32;;;;;;;3.53;3.40;;;15.40;99.90;;;;;;5011606;28;20203;-55
2023/09/01 03:20:00;;;;;;;3.20;3.00;;;15.40;99.90;;;;;;5011899;28;20203;-54
2023/09/01 03:22:27;;;;;;;4.00;3.70;;;15.40;99.90;;;;;;5008818;28;20199;-55
2023/09/01 03:24:54;;;;;;;3.20;3.10;;;15.40;99.90;;;;;;5003751;28;20227;-55
2023/09/01 03:27:22;;;;;;;3.93;3.20;;;15.30;99.90;;;;;;5011450;28;20260;-54
2023/09/01 03:29:54;;;;;;;3.07;2.97;;;15.30;99.90;;;;;;5011510;28;20223;-55
2023/09/01 03:32:21;;;;;;;3.43;3.17;;;15.20;99.90;;;;;;5010951;28;20731;-55
2023/09/01 03:34:48;;;;;;;3.07;2.90;;;15.20;99.90;;;;;;5011524;28;20223;-55
2023/09/01 03:37:16;;;;;;;4.80;3.37;;;15.10;99.90;;;;;;5009992;28;20227;-55
2023/09/01 03:39:43;;;;;;;2.93;2.83;;;15.20;99.90;;;;;;5008836;28;20581;-55
2023/09/01 03:42:10;;;;;;;3.27;2.93;;;15.20;99.90;;;;;;5002933;28;20644;-55
2023/09/01 03:44:37;;;;;;;4.03;3.47;;;15.20;99.90;;;;;;5011698;28;20717;-55
2023/09/01 03:47:05;;;;;;;3.27;3.07;;;15.20;99.90;;;;;;5011227;28;20253;-55
2023/09/01 03:49:32;;;;;;;3.93;3.70;;;15.10;99.90;;;;;;5010483;28;20257;-55
2023/09/01 03:52:00;;;;;;;3.10;3.00;;;15.10;99.90;;;;;;5014163;28;20276;-55
2023/09/01 03:54:28;;;;;;;3.70;3.50;;;15.10;99.90;;;;;;5012925;28;20235;-54
2023/09/01 03:56:55;;;;;;;3.27;2.93;;;15.00;99.90;;;;;;5015053;28;20199;-55
2023/09/01 03:59:23;;;;;;;3.00;2.80;;;15.00;99.90;;;;;;5015487;28;20195;-55
2023/09/01 04:01:49;;;;;;;4.07;3.87;;;15.00;99.90;;;;;;5014212;28;20688;-55
2023/09/01 04:04:18;;;;;;;4.73;4.20;;;15.00;99.90;;;;;;5014442;28;20219;-55
2023/09/01 04:06:46;;;;;;;4.00;3.80;;;15.00;99.90;;;;;;5015182;28;20199;-55
2023/09/01 04:09:13;;;;;;;3.53;3.23;;;15.00;99.90;;;;;;5013897;28;20223;-55
2023/09/01 04:11:41;;;;;;;3.50;3.20;;;15.00;99.90;;;;;;5013936;28;20253;-55
2023/09/01 04:14:10;;;;;;;3.93;3.67;;;15.00;99.90;;;;;;5004343;28;20261;-55
2023/09/01 04:16:37;;;;;;;7.13;4.67;;;15.00;99.90;;;;;;5014940;28;20232;-55
2023/09/01 04:19:04;;;;;;;4.00;3.63;;;15.00;99.90;;;;;;5015055;28;20195;-55
2023/09/01 04:21:31;;;;;;;4.37;3.87;;;15.10;99.90;;;;;;5014933;28;20269;-55
2023/09/01 04:23:59;;;;;;;3.50;3.30;;;15.10;99.90;;;;;;5014147;28;20215;-56
2023/09/01 04:26:26;;;;;;;3.43;3.23;;;15.10;99.90;;;;;;5013120;28;20697;-55
2023/09/01 04:28:54;;;;;;;3.30;3.20;;;15.10;99.90;;;;;;5014642;28;20273;-55
2023/09/01 04:31:26;;;;;;;3.00;2.90;;;15.20;99.90;;;;;;5014882;28;20203;-55
2023/09/01 04:33:53;;;;;;;3.47;3.30;;;15.10;99.90;;;;;;5014102;28;20211;-54
2023/09/01 04:36:20;;;;;;;3.70;3.40;;;15.00;99.90;;;;;;5012031;28;20653;-55
2023/09/01 04:38:47;;;;;;;2.83;2.63;;;15.00;99.90;;;;;;5013070;28;20196;-55
2023/09/01 04:41:14;;;;;;;3.13;2.93;;;15.00;99.90;;;;;;5015245;28;20200;-55
2023/09/01 04:43:42;;;;;;;2.93;2.80;;;15.00;99.90;;;;;;5011038;28;20207;-55
2023/09/01 04:46:10;;;;;;;3.23;2.93;;;15.00;99.90;;;;;;5011062;28;20219;-55
2023/09/01 04:48:37;;;;;;;2.40;2.30;;;15.00;99.90;;;;;;5012909;28;20568;-55
2023/09/01 04:51:04;;;;;;;3.63;3.33;;;15.00;99.90;;;;;;5009219;28;20657;-55
2023/09/01 04:53:32;;;;;;;3.50;3.30;;;15.00;99.90;;;;;;5012301;28;20265;-55
2023/09/01 04:55:59;;;;;;;3.17;2.87;;;15.00;99.90;;;;;;5012763;28;20230;-54
2023/09/01 04:58:26;;;;;;;3.47;3.33;;;15.00;99.90;;;;;;5013035;28;20810;-55
2023/09/01 05:00:54;;;;;;;3.60;3.33;;;15.10;99.90;;;;;;5007261;28;20195;-55
2023/09/01 05:03:26;;;;;;;3.60;3.30;;;15.10;99.90;;;;;;5010519;28;20231;-55
2023/09/01 05:05:53;;;;;;;3.47;3.27;;;15.10;99.90;;;;;;5012180;28;20689;-55
2023/09/01 05:08:20;;;;;;;3.17;3.00;;;15.10;99.90;;;;;;5011773;28;20574;-54
2023/09/01 05:10:47;;;;;;;3.17;2.90;;;15.20;99.90;;;;;;5009313;28;20222;-55
2023/09/01 05:13:15;;;;;;;3.03;2.83;;;15.20;99.90;;;;;;5010554;28;20293;-54
2023/09/01 05:15:42;;;;;;;4.00;3.70;;;15.20;99.90;;;;;;5012472;28;20223;-55
2023/09/01 05:18:09;;;;;;;4.60;3.37;;;15.30;99.90;;;;;;5009199;28;20195;-54
2023/09/01 05:20:37;;;;;;;3.37;3.07;;;15.40;99.90;;;;;;5012464;28;20662;-55
2023/09/01 05:23:04;;;;;;;3.40;3.20;;;15.40;99.90;;;;;;5011791;28;20207;-54
2023/09/01 05:25:32;;;;;;;4.00;3.80;;;15.40;99.90;;;;;;5012219;28;20724;-55
2023/09/01 05:27:59;;;;;;;3.20;3.00;;;15.50;99.90;;;;;;5011626;28;20246;-55
2023/09/01 05:30:26;;;;;;;3.20;3.10;;;15.50;99.90;;;;;;5012631;28;20238;-55
2023/09/01 05:32:53;;;;;;;2.83;2.63;;;15.50;99.90;;;;;;5010988;28;20257;-54
2023/09/01 05:35:20;;;;;;;3.37;3.17;;;15.60;99.90;;;;;;5011897;28;20223;-55
2023/09/01 05:37:48;;;;;;;3.70;3.50;;;15.60;99.90;;;;;;5012184;28;20203;-54
2023/09/01 05:40:17;;;;;;;7.30;3.47;;;15.60;99.90;;;;;;5012066;28;20241;-54
2023/09/01 05:42:44;;;;;;;3.00;2.90;;;15.70;99.90;;;;;;5011390;28;20214;-54
2023/09/01 05:45:11;;;;;;;4.87;3.80;;;15.70;99.90;;;;;;5008625;28;20227;-54
2023/09/01 05:47:38;;;;;;;3.10;2.90;;;15.70;99.90;;;;;;5011632;28;20211;-55
2023/09/01 05:50:05;;;;;;;3.37;3.17;;;15.70;99.90;;;;;;5012045;28;20219;-55
2023/09/01 05:52:32;;;;;;;2.77;2.67;;;15.70;99.90;;;;;;5011458;28;20305;-54
2023/09/01 05:55:01;;;;;;;4.57;4.17;;;15.70;99.90;;;;;;5012889;28;20277;-55
2023/09/01 05:57:27;;;;;;;6.33;3.60;;;15.70;99.90;;;;;;5013098;28;20261;-55
2023/09/01 05:59:54;;;;;;;4.33;3.87;;;15.70;99.90;;;;;;5010054;28;20577;-55
2023/09/01 06:02:21;;;;;;;4.33;3.47;;;15.70;99.90;;;;;;5011564;28;20279;-55
2023/09/01 06:04:48;;;;;;;6.90;3.60;;;15.70;99.90;;;;;;5012939;28;20608;-56
2023/09/01 06:07:15;;;;;;;4.07;3.77;;;15.70;99.90;;;;;;5012975;28;20199;-55
2023/09/01 06:09:42;;;;;;;3.90;3.47;;;15.70;99.90;;;;;;5012803;28;20297;-55
2023/09/01 06:12:11;;;;;;;3.93;3.63;;;15.80;99.90;;;;;;5007572;28;20195;-55
2023/09/01 06:14:38;;;;;;;7.27;4.30;;;15.90;99.90;;;;;;5008304;28;20231;-55
2023/09/01 06:17:05;;;;;;;4.17;3.73;;;16.00;99.90;;;;;;5012672;28;20618;-56
2023/09/01 06:19:32;;;;;;;3.30;3.10;;;16.00;99.90;;;;;;5012743;28;20199;-54
2023/09/01 06:21:59;;;;;;;3.63;3.33;;;16.20;99.90;;;;;;5011749;28;20203;-55
2023/09/01 06:24:26;;;;;;;3.90;3.67;;;16.30;99.90;;;;;;5010807;28;20215;-55
2023/09/01 06:26:55;;;;;;;4.40;3.97;;;16.40;99.90;;;;;;5008199;28;20285;-55
2023/09/01 06:29:26;;;;;;;4.13;3.53;;;16.40;99.90;;;;;;5007384;28;20219;-55
2023/09/01 06:31:53;;;;;;;3.77;3.57;;;16.40;99.90;;;;;;5010101;28;20756;-55
2023/09/01 06:34:20;;;;;;;4.30;3.90;;;16.20;99.90;;;;;;5010356;28;20215;-55
2023/09/01 06:36:47;;;;;;;3.90;3.60;;;16.30;99.90;;;;;;5008762;28;20214;-54
2023/09/01 06:39:16;;;;;;;3.90;3.60;;;16.30;99.90;;;;;;5009054;28;20265;-55
2023/09/01 06:41:43;;;;;;;3.50;3.30;;;16.40;99.90;;;;;;5008814;28;20203;-54
2023/09/01 06:44:10;;;;;;;3.33;3.00;;;16.30;99.90;;;;;;5009487;28;20269;-55
2023/09/01 06:46:38;;;;;;;3.27;3.07;;;16.30;99.90;;;;;;5010825;28;20202;-54
2023/09/01 06:49:05;;;;;;;4.17;3.80;;;16.30;99.90;;;;;;5010733;28;20277;-55
2023/09/01 06:51:32;;;;;;;3.10;2.93;;;16.30;99.90;;;;;;5009213;28;20253;-55
2023/09/01 06:53:59;;;;;;;3.63;3.43;;;16.40;99.90;;;;;;5006427;28;20203;-55
2023/09/01 06:56:26;;;;;;;3.33;3.13;;;16.50;99.90;;;;;;5010673;28;20245;-55
2023/09/01 06:58:54;;;;;;;2.90;2.80;;;16.40;99.90;;;;;;5010703;28;20195;-55
2023/09/01 07:01:21;;;;;;;3.50;3.30;;;16.50;99.90;;;;;;5010637;28;20203;-54
2023/09/01 07:03:50;;;;;;;6.13;4.97;;;16.50;99.90;;;;;;5009781;28;20203;-55
2023/09/01 07:06:17;;;;;;;6.17;4.97;;;16.50;99.90;;;;;;5010862;28;20299;-55
2023/09/01 07:08:44;;;;;;;4.10;3.37;;;16.70;99.90;;;;;;5008979;28;20293;-55
2023/09/01 07:11:14;;;;;;;2.87;2.77;;;16.90;99.90;;;;;;5005958;28;20223;-55
2023/09/01 07:13:41;;;;;;;3.33;3.03;;;17.00;99.90;;;;;;5009759;28;20210;-56
2023/09/01 07:16:08;;;;;;;2.90;2.70;;;17.00;99.90;;;;;;5012111;28;20222;-55
2023/09/01 07:18:35;;;;;;;2.83;2.73;;;17.20;99.90;;;;;;5010614;28;20200;-56
2023/09/01 07:21:03;;;;;;;3.60;3.40;;;17.50;99.90;;;;;;5009659;28;20237;-56
2023/09/01 07:23:30;;;;;;;3.27;2.73;;;18.00;99.90;;;;;;5004395;28;20258;-56
2023/09/01 07:25:59;;;;;;;3.17;2.63;;;18.60;99.90;;;;;;5013409;28;20218;-55
2023/09/01 07:28:26;;;;;;;3.00;2.20;;;18.90;99.90;;;;;;5010418;28;20203;-55
2023/09/01 07:30:53;;;;;;;2.40;2.40;;;19.20;99.90;;;;;;5006210;28;20272;-54
2023/09/01 07:33:20;;;;;;;3.10;2.87;;;19.50;99.90;;;;;;5009619;28;20222;-55
2023/09/01 07:35:47;;;;;;;3.53;2.87;;;19.70;99.90;;;;;;5007039;28;20227;-56
2023/09/01 07:38:18;;;;;;;4.17;2.90;;;19.50;99.90;;;;;;5008566;28;20257;-55
2023/09/01 07:40:46;;;;;;;3.67;3.03;;;19.70;99.90;;;;;;5010292;28;20230;-54
2023/09/01 07:43:17;;;;;;;5.43;2.60;;;20.30;99.90;;;;;;5013100;28;20562;-54
2023/09/01 07:45:44;;;;;;;2.37;2.27;;;20.70;99.90;;;;;;5008881;28;20219;-54
2023/09/01 07:48:11;;;;;;;3.30;2.80;;;20.70;99.90;;;;;;5010117;28;20245;-54
2023/09/01 07:50:38;;;;;;;1.97;1.83;;;20.70;99.90;;;;;;5009303;28;20301;-54
2023/09/01 07:53:05;;;;;;;2.70;2.23;;;20.80;99.90;;;;;;5009918;28;20383;-54
2023/09/01 07:55:34;;;;;;;3.77;2.03;;;20.80;99.90;;;;;;5007824;28;20227;-54
2023/09/01 07:58:01;;;;;;;2.67;2.47;;;20.50;99.90;;;;;;5010155;28;20273;-54
2023/09/01 08:00:28;;;;;;;3.37;2.73;;;20.40;99.90;;;;;;5010748;28;20199;-54
2023/09/01 08:02:55;;;;;;;2.53;2.43;;;20.50;99.90;;;;;;5008573;28;20207;-54
2023/09/01 08:05:22;;;;;;;4.37;3.97;;;20.60;99.90;;;;;;5010812;28;20243;-54
2023/09/01 08:07:51;;;;;;;1.90;1.73;;;21.30;99.90;;;;;;5010951;28;20203;-54
2023/09/01 08:10:18;;;;;;;1.93;1.83;;;21.90;99.90;;;;;;5011202;28;20569;-54
2023/09/01 08:12:46;;;;;;;2.70;2.50;;;21.80;99.90;;;;;;5009525;28;20261;-54
2023/09/01 08:15:13;;;;;;;2.50;2.33;;;21.60;99.90;;;;;;5011102;28;20273;-54
2023/09/01 08:17:40;;;;;;;4.30;2.30;;;22.00;99.90;;;;;;5008502;28;20261;-55
2023/09/01 08:20:09;;;;;;;1.97;1.97;;;22.80;99.90;;;;;;5000815;28;20199;-54
2023/09/01 08:22:36;;;;;;;2.33;2.17;;;23.00;99.90;;;;;;5012625;28;20666;-54
2023/09/01 08:25:03;;;;;;;2.60;2.40;;;23.80;99.90;;;;;;5009924;28;20270;-54
2023/09/01 08:27:30;;;;;;;2.50;2.30;;;24.60;99.90;;;;;;5011410;28;20195;-54
2023/09/01 08:29:58;;;;;;;2.97;2.33;;;25.00;99.90;;;;;;5009497;28;20218;-54
2023/09/01 08:32:25;;;;;;;4.10;2.40;;;24.90;99.90;;;;;;5009125;28;20265;-55
2023/09/01 08:34:53;;;;;;;7.60;2.90;;;25.10;99.90;;;;;;5005348;28;20219;-54
2023/09/01 08:37:20;;;;;;;3.73;2.20;;;25.30;99.90;;;;;;5011251;28;20294;-54
2023/09/01 08:39:47;;;;;;;2.27;2.17;;;25.40;99.90;;;;;;5014515;28;20302;-54
2023/09/01 08:42:16;;;;;;;2.50;2.40;;;25.50;99.90;;;;;;5012563;28;20199;-54
2023/09/01 08:44:44;;;;;;;1.83;1.83;;;25.60;99.90;;;;;;5012954;28;20748;-54
2023/09/01 08:47:14;;;;;;;1.40;1.40;;;25.70;99.90;;;;;;5012652;28;20480;-54
2023/09/01 08:49:41;;;;;;;3.07;2.00;;;25.60;99.90;;;;;;5012676;28;20207;-55
2023/09/01 08:52:08;;;;;;;2.07;2.07;;;26.00;99.90;;;;;;5010315;28;20254;-54
2023/09/01 08:54:37;;;;;;;2.33;2.23;;;27.20;99.90;;;;;;5012858;28;20608;-55
2023/09/01 08:57:05;;;;;;;1.60;1.60;;;27.30;99.90;;;;;;5013048;28;20389;-54
2023/09/01 08:59:33;;;;;;;2.15;1.88;;;27.60;99.90;;;;;;5013040;28;20306;-55
2023/09/01 09:02:00;;;;;;;1.80;1.70;;;28.00;99.90;;;;;;5010949;28;20198;-54
2023/09/01 09:04:31;;;;;;;2.50;2.30;;;28.20;99.90;;;;;;5012148;28;20305;-55
2023/09/01 09:07:12;;;;;;;2.33;2.22;;;28.60;99.90;;;;;;5013675;28;20249;-55
2023/09/01 09:09:53;;;;;;;1.67;1.67;;;28.90;99.90;;;;;;5012212;28;20565;-54
2023/09/01 09:12:22;;;;;;;1.50;1.50;;;28.90;99.90;;;;;;5012273;28;20673;-56
2023/09/01 09:14:52;;;;;;;1.50;1.50;;;29.30;99.90;;;;;;5020327;28;20730;-56
2023/09/01 09:17:21;;;;;;;1.75;1.75;;;29.20;99.90;;;;;;5011715;28;20205;-56
2023/09/01 09:19:53;;;;;;;2.30;2.20;;;29.30;99.90;;;;;;5010840;28;20234;-56
2023/09/01 09:22:21;;;;;;;2.13;1.52;;;29.50;99.90;;;;;;5006689;28;20199;-56
2023/09/01 09:24:48;;;;;;;2.13;1.73;;;29.50;99.90;;;;;;5011757;28;20331;-56
2023/09/01 09:27:16;;;;;;;2.55;2.00;;;28.90;99.90;;;;;;5012422;28;20202;-56
2023/09/01 09:29:44;;;;;;;2.05;1.95;;;28.60;99.90;;;;;;5009481;28;20214;-56
2023/09/01 09:32:18;;;;;;;1.80;1.67;;;28.60;99.90;;;;;;5011793;28;20254;-56
2023/09/01 09:35:05;;;;;;;1.30;1.30;;;29.10;99.90;;;;;;5010571;28;20227;-56
2023/09/01 09:37:32;;;;;;;1.40;1.40;;;29.50;99.90;;;;;;5007987;28;20209;-56
2023/09/01 09:40:14;;;;;;;1.60;1.60;;;29.60;99.90;;;;;;5012256;28;20191;-56
2023/09/01 09:42:42;;;;;;;4.15;1.55;;;29.90;99.90;;;;;;5012073;28;20199;-56
2023/09/01 09:45:24;;;;;;;1.65;1.65;;;29.90;99.90;;;;;;5010860;28;20294;-56
2023/09/01 09:47:51;;;;;;;1.77;1.58;;;30.40;99.90;;;;;;5011899;28;20293;-57
2023/09/01 09:50:20;;;;;;;1.98;1.90;;;30.20;99.90;;;;;;5010803;28;20215;-57
2023/09/01 09:52:49;;;;;;;1.73;1.73;;;30.30;99.90;;;;;;5008799;28;20644;-56
2023/09/01 09:55:25;;;;;;;1.63;1.63;;;30.40;99.90;;;;;;5010949;28;20226;-56
2023/09/01 09:57:52;;;;;;;1.40;1.40;;;30.60;99.90;;;;;;5011918;28;20211;-56
2023/09/01 10:00:22;;;;;;;1.23;1.23;;;30.70;99.90;;;;;;5007838;28;20658;-56
2023/09/01 10:02:54;;;;;;;1.70;1.60;;;30.30;99.90;;;;;;5007314;28;20211;-57
2023/09/01 10:05:24;;;;;;;2.35;1.42;;;30.00;99.90;;;;;;5010868;28;20781;-56
2023/09/01 10:07:52;;;;;;;1.73;1.63;;;29.90;98.80;;;;;;5012029;28;20274;-56
2023/09/01 10:10:20;;;;;;;2.80;2.47;;;30.10;99.90;;;;;;5007946;28;20637;-56
2023/09/01 10:12:47;;;;;;;1.83;1.75;;;30.40;97.60;;;;;;5008235;28;20202;-56
2023/09/01 10:15:16;;;;;;;1.77;1.77;;;30.70;97.30;;;;;;5011067;28;20700;-57
2023/09/01 10:17:44;;;;;;;1.60;1.60;;;30.70;98.60;;;;;;5014216;28;20302;-57
2023/09/01 10:20:12;;;;;;;1.50;1.40;;;30.60;99.40;;;;;;5011725;28;20278;-57
2023/09/01 10:22:40;;;;;;;2.45;1.60;;;30.50;97.40;;;;;;5010653;28;20661;-57
2023/09/01 10:25:10;;;;;;;1.60;1.58;;;30.60;98.60;;;;;;5010255;28;20704;-56
2023/09/01 10:27:38;;;;;;;1.75;1.58;;;30.80;99.30;;;;;;5010960;28;20282;-57
2023/09/01 10:30:26;;;;;;;1.73;1.63;;;31.00;99.20;;;;;;5011891;28;20279;-56
2023/09/01 10:33:04;;;;;;;1.50;1.50;;;30.90;98.70;;;;;;5010525;28;20226;-57
2023/09/01 10:35:44;;;;;;;1.25;1.25;;;31.60;95.30;;;;;;5007524;28;20700;-56
2023/09/01 10:38:19;;;;;;;1.63;1.63;;;31.60;97.10;;;;;;5011149;28;20261;-57
2023/09/01 10:40:48;;;;;;;1.75;1.73;;;31.20;96.20;;;;;;5010307;28;20198;-56
2023/09/01 10:43:52;;;;;;;1.85;1.75;;;31.20;95.30;;;;;;5008617;28;20203;-56
2023/09/01 10:46:26;;;;;;;1.70;1.70;;;31.00;96.10;;;;;;5008035;28;20288;-57
2023/09/01 10:48:54;;;;;;;1.60;1.60;;;31.10;96.10;;;;;;5011130;28;20282;-57
2023/09/01 10:51:22;;;;;;;2.47;2.28;;;31.00;95.40;;;;;;5008790;28;20215;-57
2023/09/01 10:53:53;;;;;;;2.35;2.15;;;30.60;96.30;;;;;;5008362;28;20757;-56
2023/09/01 10:56:20;;;;;;;2.78;1.98;;;29.80;97.90;;;;;;5010684;28;20199;-56
2023/09/01 10:58:49;;;;;;;3.33;2.30;;;29.90;98.20;;;;;;5010744;28;20385;-56
2023/09/01 11:01:27;;;;;;;2.20;2.00;;;29.60;98.10;;;;;;5007309;28;20195;-57
2023/09/01 11:03:54;;;;;;;1.70;1.60;;;29.50;99.00;;;;;;5008305;28;20281;-55
2023/09/01 11:06:21;;;;;;;1.42;1.42;;;29.20;99.10;;;;;;5010487;28;20233;-55
2023/09/01 11:09:00;;;;;;;2.22;1.85;;;29.10;99.90;;;;;;5008805;28;20693;-55
2023/09/01 11:11:27;;;;;;;2.38;2.22;;;28.90;99.50;;;;;;5009635;28;20234;-55
2023/09/01 11:13:55;;;;;;;2.35;2.17;;;28.30;99.80;;;;;;5008729;28;20665;-54
2023/09/01 11:16:22;;;;;;;1.85;1.85;;;27.80;99.90;;;;;;5010863;28;20563;-54
2023/09/01 11:19:02;;;;;;;4.18;3.65;;;27.40;99.90;;;;;;5008524;28;20199;-56
2023/09/01 11:21:29;;;;;;;2.17;2.13;;;27.50;99.90;;;;;;5010221;28;20207;-56
2023/09/01 11:24:03;;;;;;;1.77;1.77;;;27.40;99.90;;;;;;5009992;28;20257;-56
2023/09/01 11:26:30;;;;;;;1.80;1.70;;;27.40;99.90;;;;;;5009198;28;20860;-56
2023/09/01 11:28:57;;;;;;;1.38;1.30;;;26.60;99.90;;;;;;5010451;28;20199;-56
2023/09/01 11:31:24;;;;;;;2.08;1.98;;;26.70;99.90;;;;;;5010132;28;20265;-56
2023/09/01 11:33:53;;;;;;;1.88;1.77;;;26.90;99.90;;;;;;5008371;28;20249;-56
2023/09/01 11:36:21;;;;;;;1.50;1.40;;;26.90;99.90;;;;;;5010246;28;20231;-56
2023/09/01 11:38:48;;;;;;;2.42;1.83;;;26.70;99.90;;;;;;5010339;28;20253;-56
2023/09/01 11:41:19;;;;;;;2.80;1.80;;;26.60;99.90;;;;;;5009984;28;20249;-56
2023/09/01 11:43:46;;;;;;;2.50;1.58;;;26.40;99.90;;;;;;5006482;28;20247;-56
2023/09/01 11:46:15;;;;;;;1.48;1.38;;;26.40;99.90;;;;;;5011482;28;20261;-56
2023/09/01 11:48:42;;;;;;;1.30;1.30;;;26.40;99.90;;;;;;5011305;28;20265;-56
2023/09/01 11:51:10;;;;;;;2.13;1.95;;;26.30;99.90;;;;;;5011217;28;20277;-56
2023/09/01 11:53:38;;;;;;;1.67;1.63;;;26.30;99.90;;;;;;5010688;28;20288;-57
2023/09/01 11:56:22;;;;;;;1.17;1.17;;;26.30;99.90;;;;;;5011309;28;20281;-56
2023/09/01 11:58:49;;;;;;;1.60;1.50;;;26.30;99.90;;;;;;5006736;28;20204;-56
2023/09/01 12:01:17;;;;;;;1.02;1.02;;;26.10;99.90;;;;;;5011354;28;20280;-56
2023/09/01 12:03:45;;;;;;;2.20;1.55;;;26.00;99.90;;;;;;5010654;28;20253;-56
2023/09/01 12:06:18;;;;;;;1.48;1.38;;;26.00;99.90;;;;;;5011205;28;20258;-56
2023/09/01 12:08:45;;;;;;;1.95;1.85;;;26.00;99.90;;;;;;5011454;28;20266;-55
2023/09/01 12:11:13;;;;;;;1.25;1.23;;;26.00;99.90;;;;;;5011400;28;20280;-56
2023/09/01 12:13:43;;;;;;;1.33;1.23;;;26.00;99.90;;;;;;5012787;28;20261;-55
2023/09/01 12:16:19;;;;;;;1.13;1.10;;;25.90;99.90;;;;;;5008471;28;20215;-57
2023/09/01 12:18:46;;;;;;;0.80;0.80;;;25.80;99.90;;;;;;5014185;28;20209;-56
2023/09/01 12:21:14;;;;;;;1.45;1.38;;;25.80;99.90;;;;;;5014116;28;20199;-56
2023/09/01 12:23:43;;;;;;;1.67;1.40;;;25.80;99.90;;;;;;5012568;28;20199;-56
2023/09/01 12:26:11;;;;;;;1.27;1.00;;;25.70;99.90;;;;;;5006049;28;20647;-56
2023/09/01 12:28:39;;;;;;;1.90;1.10;;;25.70;99.90;;;;;;5014166;28;20206;-56
2023/09/01 12:31:08;;;;;;;1.53;1.37;;;25.50;99.90;;;;;;5011676;28;20219;-56
2023/09/01 12:33:36;;;;;;;2.20;1.03;;;25.50;99.90;;;;;;5011988;28;20195;-56
2023/09/01 12:36:04;;;;;;;1.88;1.02;;;25.30;99.90;;;;;;5013207;28;20227;-56
2023/09/01 12:38:31;;;;;;;1.43;1.10;;;25.10;99.90;;;;;;5013621;28;20206;-56
2023/09/01 12:40:58;;;;;;;1.27;0.80;;;25.00;99.90;;;;;;5013933;28;20635;-56
2023/09/01 12:43:25;;;;;;;0.67;0.67;;;25.10;99.90;;;;;;5012853;28;20620;-56
2023/09/01 12:45:52;;;;;;;1.30;0.90;;;25.30;99.90;;;;;;5018739;28;20227;-56
2023/09/01 12:48:22;;;;;;;1.23;0.80;;;25.60;99.90;;;;;;5012844;28;20638;-56
2023/09/01 12:50:50;;;;;;;1.90;1.30;;;25.60;99.90;;;;;;5013703;28;20223;-56
2023/09/01 12:53:20;;;;;;;0.90;0.90;;;25.50;99.90;;;;;;5013708;28;20661;-56
2023/09/01 12:55:48;;;;;;;1.27;1.10;;;25.60;99.90;;;;;;5014181;28;20230;-56